sensor_id;sensor_type;location;lat;lon;timestamp;P1;durP1;ratioP1;P2;durP2;ratioP2
1839;SDS011;920;48.944;9.148;2023-12-28T00:01:01;4.23;;;3.03;;
1839;SDS011;920;48.944;9.148;2023-12-28T00:03:27;4.10;;;2.90;;
1839;SDS011;920;48.944;9.148;2023-12-28T00:05:54;3.67;;;2.73;;
1839;SDS011;920;48.944;9.148;2023-12-28T00:08:23;3.40;;;2.50;;
1839;SDS011;920;48.944;9.148;2023-12-28T00:10:51;4.40;;;2.43;;
1839;SDS011;920;48.944;9.148;2023-12-28T00:13:18;4.13;;;2.97;;
1839;SDS011;920;48.944;9.148;2023-12-28T00:15:44;8.10;;;5.80;;
1839;SDS011;920;48.944;9.148;2023-12-28T00:18:11;8.63;;;6.20;;
1839;SDS011;920;48.944;9.148;2023-12-28T00:20:38;8.47;;;6.07;;
1839;SDS011;920;48.944;9.148;2023-12-28T00:23:05;8.67;;;6.30;;
1839;SDS011;920;48.944;9.148;2023-12-28T00:25:31;8.00;;;6.20;;
1839;SDS011;920;48.944;9.148;2023-12-28T00:28:00;9.27;;;5.70;;
1839;SDS011;920;48.944;9.148;2023-12-28T00:30:26;7.30;;;5.50;;
1839;SDS011;920;48.944;9.148;2023-12-28T00:32:53;8.40;;;5.80;;
1839;SDS011;920;48.944;9.148;2023-12-28T00:35:20;5.30;;;4.40;;
1839;SDS011;920;48.944;9.148;2023-12-28T00:37:47;5.70;;;3.90;;
1839;SDS011;920;48.944;9.148;2023-12-28T00:40:14;4.37;;;3.20;;
1839;SDS011;920;48.944;9.148;2023-12-28T00:42:41;5.20;;;3.50;;
1839;SDS011;920;48.944;9.148;2023-12-28T00:45:09;4.70;;;3.63;;
1839;SDS011;920;48.944;9.148;2023-12-28T00:47:36;3.60;;;2.70;;
1839;SDS011;920;48.944;9.148;2023-12-28T00:50:03;4.97;;;3.00;;
1839;SDS011;920;48.944;9.148;2023-12-28T00:52:30;3.90;;;2.73;;
1839;SDS011;920;48.944;9.148;2023-12-28T00:54:57;4.37;;;2.60;;
1839;SDS011;920;48.944;9.148;2023-12-28T00:57:24;3.87;;;2.70;;
1839;SDS011;920;48.944;9.148;2023-12-28T00:59:50;5.90;;;3.30;;
1839;SDS011;920;48.944;9.148;2023-12-28T01:02:19;10.60;;;5.93;;
1839;SDS011;920;48.944;9.148;2023-12-28T01:04:47;11.87;;;5.13;;
1839;SDS011;920;48.944;9.148;2023-12-28T01:07:13;8.77;;;4.33;;
1839;SDS011;920;48.944;9.148;2023-12-28T01:09:40;5.60;;;3.50;;
1839;SDS011;920;48.944;9.148;2023-12-28T01:12:07;4.30;;;2.93;;
1839;SDS011;920;48.944;9.148;2023-12-28T01:14:34;5.40;;;2.60;;
1839;SDS011;920;48.944;9.148;2023-12-28T01:17:01;3.60;;;2.70;;
1839;SDS011;920;48.944;9.148;2023-12-28T01:19:29;5.77;;;3.60;;
1839;SDS011;920;48.944;9.148;2023-12-28T01:21:55;4.87;;;2.80;;
1839;SDS011;920;48.944;9.148;2023-12-28T01:24:22;5.97;;;2.97;;
1839;SDS011;920;48.944;9.148;2023-12-28T01:26:49;4.40;;;2.90;;
1839;SDS011;920;48.944;9.148;2023-12-28T01:29:16;3.93;;;2.70;;
1839;SDS011;920;48.944;9.148;2023-12-28T01:31:43;3.70;;;2.63;;
1839;SDS011;920;48.944;9.148;2023-12-28T01:34:10;3.80;;;2.60;;
1839;SDS011;920;48.944;9.148;2023-12-28T01:36:39;3.30;;;2.20;;
1839;SDS011;920;48.944;9.148;2023-12-28T01:39:09;3.50;;;2.60;;
1839;SDS011;920;48.944;9.148;2023-12-28T01:41:36;4.07;;;2.40;;
1839;SDS011;920;48.944;9.148;2023-12-28T01:44:03;4.90;;;2.60;;
1839;SDS011;920;48.944;9.148;2023-12-28T01:46:30;4.20;;;2.83;;
1839;SDS011;920;48.944;9.148;2023-12-28T01:48:58;4.50;;;2.77;;
1839;SDS011;920;48.944;9.148;2023-12-28T01:51:26;4.00;;;2.57;;
1839;SDS011;920;48.944;9.148;2023-12-28T01:53:55;3.43;;;2.40;;
1839;SDS011;920;48.944;9.148;2023-12-28T01:56:21;3.03;;;2.00;;
1839;SDS011;920;48.944;9.148;2023-12-28T01:58:49;2.90;;;2.10;;
1839;SDS011;920;48.944;9.148;2023-12-28T02:01:17;4.23;;;2.43;;
1839;SDS011;920;48.944;9.148;2023-12-28T02:03:44;3.40;;;2.57;;
1839;SDS011;920;48.944;9.148;2023-12-28T02:06:11;18.33;;;8.37;;
1839;SDS011;920;48.944;9.148;2023-12-28T02:08:41;17.60;;;9.10;;
1839;SDS011;920;48.944;9.148;2023-12-28T02:11:09;16.60;;;8.73;;
1839;SDS011;920;48.944;9.148;2023-12-28T02:13:36;9.50;;;5.10;;
1839;SDS011;920;48.944;9.148;2023-12-28T02:16:06;8.87;;;4.80;;
1839;SDS011;920;48.944;9.148;2023-12-28T02:18:37;6.47;;;4.57;;
1839;SDS011;920;48.944;9.148;2023-12-28T02:21:06;6.33;;;4.17;;
1839;SDS011;920;48.944;9.148;2023-12-28T02:23:32;6.63;;;4.00;;
1839;SDS011;920;48.944;9.148;2023-12-28T02:26:01;5.80;;;3.37;;
1839;SDS011;920;48.944;9.148;2023-12-28T02:28:27;5.50;;;3.13;;
1839;SDS011;920;48.944;9.148;2023-12-28T02:30:54;3.80;;;2.60;;
1839;SDS011;920;48.944;9.148;2023-12-28T02:33:30;3.60;;;2.30;;
1839;SDS011;920;48.944;9.148;2023-12-28T02:36:01;3.47;;;1.97;;
1839;SDS011;920;48.944;9.148;2023-12-28T02:38:30;3.90;;;2.70;;
1839;SDS011;920;48.944;9.148;2023-12-28T02:41:00;2.80;;;2.00;;
1839;SDS011;920;48.944;9.148;2023-12-28T02:43:27;3.93;;;2.10;;
1839;SDS011;920;48.944;9.148;2023-12-28T02:45:54;3.20;;;2.00;;
1839;SDS011;920;48.944;9.148;2023-12-28T02:48:21;3.03;;;1.90;;
1839;SDS011;920;48.944;9.148;2023-12-28T02:50:47;2.50;;;2.07;;
1839;SDS011;920;48.944;9.148;2023-12-28T02:53:14;2.47;;;1.90;;
1839;SDS011;920;48.944;9.148;2023-12-28T02:55:41;2.40;;;1.67;;
1839;SDS011;920;48.944;9.148;2023-12-28T02:58:09;3.10;;;1.80;;
1839;SDS011;920;48.944;9.148;2023-12-28T03:00:36;3.37;;;2.10;;
1839;SDS011;920;48.944;9.148;2023-12-28T03:03:03;3.20;;;2.07;;
1839;SDS011;920;48.944;9.148;2023-12-28T03:05:30;3.30;;;2.07;;
1839;SDS011;920;48.944;9.148;2023-12-28T03:07:57;2.57;;;1.83;;
1839;SDS011;920;48.944;9.148;2023-12-28T03:10:24;2.30;;;1.77;;
1839;SDS011;920;48.944;9.148;2023-12-28T03:12:51;4.20;;;1.80;;
1839;SDS011;920;48.944;9.148;2023-12-28T03:15:19;2.70;;;1.80;;
1839;SDS011;920;48.944;9.148;2023-12-28T03:17:46;2.70;;;1.90;;
1839;SDS011;920;48.944;9.148;2023-12-28T03:20:12;2.77;;;1.90;;
1839;SDS011;920;48.944;9.148;2023-12-28T03:22:39;2.93;;;1.93;;
1839;SDS011;920;48.944;9.148;2023-12-28T03:25:06;2.30;;;1.53;;
1839;SDS011;920;48.944;9.148;2023-12-28T03:27:33;2.90;;;1.80;;
1839;SDS011;920;48.944;9.148;2023-12-28T03:30:00;2.77;;;1.90;;
1839;SDS011;920;48.944;9.148;2023-12-28T03:32:28;2.60;;;1.90;;
1839;SDS011;920;48.944;9.148;2023-12-28T03:34:55;2.80;;;1.97;;
1839;SDS011;920;48.944;9.148;2023-12-28T03:37:22;2.97;;;2.17;;
1839;SDS011;920;48.944;9.148;2023-12-28T03:39:49;3.60;;;2.40;;
1839;SDS011;920;48.944;9.148;2023-12-28T03:42:16;3.70;;;2.90;;
1839;SDS011;920;48.944;9.148;2023-12-28T03:44:42;3.90;;;3.17;;
1839;SDS011;920;48.944;9.148;2023-12-28T03:47:09;4.73;;;2.60;;
1839;SDS011;920;48.944;9.148;2023-12-28T03:49:38;4.20;;;2.90;;
1839;SDS011;920;48.944;9.148;2023-12-28T03:52:05;3.70;;;2.30;;
1839;SDS011;920;48.944;9.148;2023-12-28T03:54:32;5.50;;;2.80;;
1839;SDS011;920;48.944;9.148;2023-12-28T03:56:59;3.40;;;2.70;;
1839;SDS011;920;48.944;9.148;2023-12-28T03:59:25;3.60;;;2.40;;
1839;SDS011;920;48.944;9.148;2023-12-28T04:01:52;2.97;;;1.90;;
1839;SDS011;920;48.944;9.148;2023-12-28T04:04:19;2.73;;;1.80;;
1839;SDS011;920;48.944;9.148;2023-12-28T04:06:49;2.33;;;1.40;;
1839;SDS011;920;48.944;9.148;2023-12-28T04:09:16;2.97;;;1.87;;
1839;SDS011;920;48.944;9.148;2023-12-28T04:11:43;2.90;;;1.90;;
1839;SDS011;920;48.944;9.148;2023-12-28T04:14:10;2.60;;;1.70;;
1839;SDS011;920;48.944;9.148;2023-12-28T04:16:37;2.57;;;1.67;;
1839;SDS011;920;48.944;9.148;2023-12-28T04:19:04;2.30;;;1.50;;
1839;SDS011;920;48.944;9.148;2023-12-28T04:21:32;3.10;;;1.80;;
1839;SDS011;920;48.944;9.148;2023-12-28T04:24:00;2.30;;;1.60;;
1839;SDS011;920;48.944;9.148;2023-12-28T04:26:27;2.60;;;1.73;;
1839;SDS011;920;48.944;9.148;2023-12-28T04:28:55;2.73;;;1.63;;
1839;SDS011;920;48.944;9.148;2023-12-28T04:31:22;2.43;;;1.70;;
1839;SDS011;920;48.944;9.148;2023-12-28T04:33:49;3.00;;;1.70;;
1839;SDS011;920;48.944;9.148;2023-12-28T04:36:16;3.07;;;1.80;;
1839;SDS011;920;48.944;9.148;2023-12-28T04:38:42;2.57;;;1.73;;
1839;SDS011;920;48.944;9.148;2023-12-28T04:41:10;3.30;;;1.77;;
1839;SDS011;920;48.944;9.148;2023-12-28T04:43:38;3.17;;;1.90;;
1839;SDS011;920;48.944;9.148;2023-12-28T04:46:05;2.50;;;1.47;;
1839;SDS011;920;48.944;9.148;2023-12-28T04:48:32;2.70;;;1.80;;
1839;SDS011;920;48.944;9.148;2023-12-28T04:51:02;2.97;;;1.50;;
1839;SDS011;920;48.944;9.148;2023-12-28T04:53:29;3.47;;;1.80;;
1839;SDS011;920;48.944;9.148;2023-12-28T04:55:56;2.80;;;1.70;;
1839;SDS011;920;48.944;9.148;2023-12-28T04:58:24;2.70;;;2.00;;
1839;SDS011;920;48.944;9.148;2023-12-28T05:00:51;2.53;;;2.10;;
1839;SDS011;920;48.944;9.148;2023-12-28T05:03:18;3.30;;;2.13;;
1839;SDS011;920;48.944;9.148;2023-12-28T05:05:45;2.63;;;1.93;;
1839;SDS011;920;48.944;9.148;2023-12-28T05:08:13;4.10;;;2.23;;
1839;SDS011;920;48.944;9.148;2023-12-28T05:10:40;4.20;;;2.30;;
1839;SDS011;920;48.944;9.148;2023-12-28T05:13:06;2.87;;;2.27;;
1839;SDS011;920;48.944;9.148;2023-12-28T05:15:35;2.80;;;2.10;;
1839;SDS011;920;48.944;9.148;2023-12-28T05:18:04;4.30;;;2.50;;
1839;SDS011;920;48.944;9.148;2023-12-28T05:20:32;2.93;;;2.17;;
1839;SDS011;920;48.944;9.148;2023-12-28T05:22:59;3.67;;;2.40;;
1839;SDS011;920;48.944;9.148;2023-12-28T05:25:26;3.37;;;2.60;;
1839;SDS011;920;48.944;9.148;2023-12-28T05:27:52;4.73;;;3.57;;
1839;SDS011;920;48.944;9.148;2023-12-28T05:30:19;5.47;;;4.27;;
1839;SDS011;920;48.944;9.148;2023-12-28T05:32:47;3.67;;;2.77;;
1839;SDS011;920;48.944;9.148;2023-12-28T05:35:14;5.10;;;3.10;;
1839;SDS011;920;48.944;9.148;2023-12-28T05:37:41;4.70;;;3.73;;
1839;SDS011;920;48.944;9.148;2023-12-28T05:40:08;4.53;;;3.00;;
1839;SDS011;920;48.944;9.148;2023-12-28T05:42:36;3.87;;;2.73;;
1839;SDS011;920;48.944;9.148;2023-12-28T05:45:02;3.20;;;2.30;;
1839;SDS011;920;48.944;9.148;2023-12-28T05:47:30;3.17;;;2.17;;
1839;SDS011;920;48.944;9.148;2023-12-28T05:49:58;3.53;;;2.00;;
1839;SDS011;920;48.944;9.148;2023-12-28T05:52:25;3.07;;;2.30;;
1839;SDS011;920;48.944;9.148;2023-12-28T05:54:52;2.93;;;2.10;;
1839;SDS011;920;48.944;9.148;2023-12-28T05:57:19;3.23;;;1.90;;
1839;SDS011;920;48.944;9.148;2023-12-28T05:59:50;2.87;;;2.00;;
1839;SDS011;920;48.944;9.148;2023-12-28T06:02:17;3.70;;;2.10;;
1839;SDS011;920;48.944;9.148;2023-12-28T06:04:43;3.07;;;2.00;;
1839;SDS011;920;48.944;9.148;2023-12-28T06:07:11;3.00;;;2.00;;
1839;SDS011;920;48.944;9.148;2023-12-28T06:09:38;6.93;;;2.17;;
1839;SDS011;920;48.944;9.148;2023-12-28T06:12:05;3.30;;;2.37;;
1839;SDS011;920;48.944;9.148;2023-12-28T06:14:32;3.40;;;2.00;;
1839;SDS011;920;48.944;9.148;2023-12-28T06:16:59;3.40;;;2.60;;
1839;SDS011;920;48.944;9.148;2023-12-28T06:19:26;3.20;;;2.43;;
1839;SDS011;920;48.944;9.148;2023-12-28T06:21:52;3.70;;;2.17;;
1839;SDS011;920;48.944;9.148;2023-12-28T06:24:20;3.43;;;2.50;;
1839;SDS011;920;48.944;9.148;2023-12-28T06:26:47;3.57;;;2.47;;
1839;SDS011;920;48.944;9.148;2023-12-28T06:29:14;3.27;;;2.30;;
1839;SDS011;920;48.944;9.148;2023-12-28T06:31:41;3.37;;;2.43;;
1839;SDS011;920;48.944;9.148;2023-12-28T06:34:07;2.80;;;2.00;;
1839;SDS011;920;48.944;9.148;2023-12-28T06:36:34;3.33;;;2.20;;
1839;SDS011;920;48.944;9.148;2023-12-28T06:39:01;2.67;;;1.90;;
1839;SDS011;920;48.944;9.148;2023-12-28T06:41:29;3.80;;;2.50;;
1839;SDS011;920;48.944;9.148;2023-12-28T06:43:56;2.80;;;2.20;;
1839;SDS011;920;48.944;9.148;2023-12-28T06:46:23;3.70;;;2.47;;
1839;SDS011;920;48.944;9.148;2023-12-28T06:48:50;4.10;;;2.30;;
1839;SDS011;920;48.944;9.148;2023-12-28T06:51:16;3.00;;;2.23;;
1839;SDS011;920;48.944;9.148;2023-12-28T06:53:44;3.63;;;2.10;;
1839;SDS011;920;48.944;9.148;2023-12-28T06:56:11;2.90;;;2.10;;
1839;SDS011;920;48.944;9.148;2023-12-28T06:58:39;3.33;;;2.40;;
1839;SDS011;920;48.944;9.148;2023-12-28T07:01:06;3.20;;;2.17;;
1839;SDS011;920;48.944;9.148;2023-12-28T07:03:33;3.10;;;2.23;;
1839;SDS011;920;48.944;9.148;2023-12-28T07:05:59;3.07;;;2.10;;
1839;SDS011;920;48.944;9.148;2023-12-28T07:08:26;3.70;;;2.40;;
1839;SDS011;920;48.944;9.148;2023-12-28T07:10:53;3.73;;;2.47;;
1839;SDS011;920;48.944;9.148;2023-12-28T07:13:20;4.43;;;2.50;;
1839;SDS011;920;48.944;9.148;2023-12-28T07:15:48;3.87;;;2.53;;
1839;SDS011;920;48.944;9.148;2023-12-28T07:18:14;5.00;;;2.50;;
1839;SDS011;920;48.944;9.148;2023-12-28T07:20:42;3.57;;;2.60;;
1839;SDS011;920;48.944;9.148;2023-12-28T07:23:08;4.87;;;3.30;;
1839;SDS011;920;48.944;9.148;2023-12-28T07:25:35;4.03;;;2.60;;
1839;SDS011;920;48.944;9.148;2023-12-28T07:28:02;4.10;;;2.73;;
1839;SDS011;920;48.944;9.148;2023-12-28T07:30:29;4.13;;;2.50;;
1839;SDS011;920;48.944;9.148;2023-12-28T07:32:57;3.53;;;2.60;;
1839;SDS011;920;48.944;9.148;2023-12-28T07:35:24;3.17;;;2.13;;
1839;SDS011;920;48.944;9.148;2023-12-28T07:37:51;3.20;;;2.20;;
1839;SDS011;920;48.944;9.148;2023-12-28T07:40:19;2.77;;;1.87;;
1839;SDS011;920;48.944;9.148;2023-12-28T07:42:46;3.07;;;2.10;;
1839;SDS011;920;48.944;9.148;2023-12-28T07:45:13;3.17;;;2.10;;
1839;SDS011;920;48.944;9.148;2023-12-28T07:47:40;3.37;;;2.10;;
1839;SDS011;920;48.944;9.148;2023-12-28T07:50:08;3.07;;;2.00;;
1839;SDS011;920;48.944;9.148;2023-12-28T07:52:35;3.60;;;2.27;;
1839;SDS011;920;48.944;9.148;2023-12-28T07:55:03;3.53;;;2.37;;
1839;SDS011;920;48.944;9.148;2023-12-28T07:57:30;3.10;;;2.10;;
1839;SDS011;920;48.944;9.148;2023-12-28T07:59:57;3.60;;;2.50;;
1839;SDS011;920;48.944;9.148;2023-12-28T08:02:23;4.00;;;2.40;;
1839;SDS011;920;48.944;9.148;2023-12-28T08:04:50;4.27;;;2.53;;
1839;SDS011;920;48.944;9.148;2023-12-28T08:07:18;3.53;;;2.20;;
1839;SDS011;920;48.944;9.148;2023-12-28T08:09:45;3.90;;;2.83;;
1839;SDS011;920;48.944;9.148;2023-12-28T08:12:12;3.63;;;2.60;;
1839;SDS011;920;48.944;9.148;2023-12-28T08:14:38;4.00;;;2.83;;
1839;SDS011;920;48.944;9.148;2023-12-28T08:17:05;3.27;;;2.43;;
1839;SDS011;920;48.944;9.148;2023-12-28T08:19:33;3.60;;;3.00;;
1839;SDS011;920;48.944;9.148;2023-12-28T08:22:00;3.57;;;2.77;;
1839;SDS011;920;48.944;9.148;2023-12-28T08:24:29;3.23;;;2.20;;
1839;SDS011;920;48.944;9.148;2023-12-28T08:26:55;3.10;;;2.30;;
1839;SDS011;920;48.944;9.148;2023-12-28T08:29:24;4.00;;;2.40;;
1839;SDS011;920;48.944;9.148;2023-12-28T08:31:51;4.07;;;2.23;;
1839;SDS011;920;48.944;9.148;2023-12-28T08:34:18;6.13;;;2.20;;
1839;SDS011;920;48.944;9.148;2023-12-28T08:36:44;3.57;;;2.33;;
1839;SDS011;920;48.944;9.148;2023-12-28T08:39:11;2.77;;;2.13;;
1839;SDS011;920;48.944;9.148;2023-12-28T08:41:39;2.83;;;1.87;;
1839;SDS011;920;48.944;9.148;2023-12-28T08:44:06;3.27;;;2.20;;
1839;SDS011;920;48.944;9.148;2023-12-28T08:46:33;3.90;;;2.80;;
1839;SDS011;920;48.944;9.148;2023-12-28T08:48:59;7.47;;;6.70;;
1839;SDS011;920;48.944;9.148;2023-12-28T08:51:26;6.70;;;5.50;;
1839;SDS011;920;48.944;9.148;2023-12-28T08:53:53;5.03;;;4.27;;
1839;SDS011;920;48.944;9.148;2023-12-28T08:56:20;5.03;;;3.97;;
1839;SDS011;920;48.944;9.148;2023-12-28T08:58:48;4.50;;;3.83;;
1839;SDS011;920;48.944;9.148;2023-12-28T09:01:16;4.13;;;3.23;;
1839;SDS011;920;48.944;9.148;2023-12-28T09:03:44;4.60;;;2.80;;
1839;SDS011;920;48.944;9.148;2023-12-28T09:06:11;6.33;;;2.50;;
1839;SDS011;920;48.944;9.148;2023-12-28T09:08:40;4.50;;;3.97;;
1839;SDS011;920;48.944;9.148;2023-12-28T09:11:07;3.60;;;2.93;;
1839;SDS011;920;48.944;9.148;2023-12-28T09:13:36;6.10;;;2.80;;
1839;SDS011;920;48.944;9.148;2023-12-28T09:16:04;5.53;;;2.97;;
1839;SDS011;920;48.944;9.148;2023-12-28T09:18:31;2.90;;;2.20;;
1839;SDS011;920;48.944;9.148;2023-12-28T09:20:58;3.20;;;2.47;;
1839;SDS011;920;48.944;9.148;2023-12-28T09:23:24;3.07;;;2.10;;
1839;SDS011;920;48.944;9.148;2023-12-28T09:25:52;3.47;;;2.50;;
1839;SDS011;920;48.944;9.148;2023-12-28T09:28:18;3.50;;;2.30;;
1839;SDS011;920;48.944;9.148;2023-12-28T09:30:45;3.30;;;2.13;;
1839;SDS011;920;48.944;9.148;2023-12-28T09:33:13;4.80;;;2.93;;
1839;SDS011;920;48.944;9.148;2023-12-28T09:35:40;6.20;;;2.63;;
1839;SDS011;920;48.944;9.148;2023-12-28T09:38:07;5.03;;;3.30;;
1839;SDS011;920;48.944;9.148;2023-12-28T09:40:34;4.53;;;2.63;;
1839;SDS011;920;48.944;9.148;2023-12-28T09:43:03;4.93;;;3.03;;
1839;SDS011;920;48.944;9.148;2023-12-28T09:45:34;4.90;;;3.00;;
1839;SDS011;920;48.944;9.148;2023-12-28T09:48:00;5.10;;;3.17;;
1839;SDS011;920;48.944;9.148;2023-12-28T09:50:31;5.17;;;3.40;;
1839;SDS011;920;48.944;9.148;2023-12-28T09:52:57;10.00;;;5.30;;
1839;SDS011;920;48.944;9.148;2023-12-28T09:55:24;8.80;;;4.70;;
1839;SDS011;920;48.944;9.148;2023-12-28T09:57:51;9.57;;;4.63;;
1839;SDS011;920;48.944;9.148;2023-12-28T10:00:18;7.07;;;4.33;;
1839;SDS011;920;48.944;9.148;2023-12-28T10:02:45;6.10;;;3.30;;
1839;SDS011;920;48.944;9.148;2023-12-28T10:05:12;4.30;;;3.47;;
1839;SDS011;920;48.944;9.148;2023-12-28T10:07:42;3.97;;;3.00;;
1839;SDS011;920;48.944;9.148;2023-12-28T10:10:09;4.40;;;3.23;;
1839;SDS011;920;48.944;9.148;2023-12-28T10:12:37;4.63;;;3.43;;
1839;SDS011;920;48.944;9.148;2023-12-28T10:15:04;4.53;;;2.50;;
1839;SDS011;920;48.944;9.148;2023-12-28T10:17:32;3.30;;;2.50;;
1839;SDS011;920;48.944;9.148;2023-12-28T10:19:59;3.50;;;2.60;;
1839;SDS011;920;48.944;9.148;2023-12-28T10:22:29;6.13;;;2.80;;
1839;SDS011;920;48.944;9.148;2023-12-28T10:24:58;4.23;;;2.97;;
1839;SDS011;920;48.944;9.148;2023-12-28T10:27:25;4.20;;;2.70;;
1839;SDS011;920;48.944;9.148;2023-12-28T10:29:53;3.97;;;2.60;;
1839;SDS011;920;48.944;9.148;2023-12-28T10:32:21;5.03;;;2.87;;
1839;SDS011;920;48.944;9.148;2023-12-28T10:34:50;4.50;;;3.80;;
1839;SDS011;920;48.944;9.148;2023-12-28T10:37:17;5.03;;;3.60;;
1839;SDS011;920;48.944;9.148;2023-12-28T10:39:47;5.30;;;3.70;;
1839;SDS011;920;48.944;9.148;2023-12-28T10:42:19;4.13;;;2.93;;
1839;SDS011;920;48.944;9.148;2023-12-28T10:44:51;5.27;;;3.60;;
1839;SDS011;920;48.944;9.148;2023-12-28T10:47:20;5.90;;;3.80;;
1839;SDS011;920;48.944;9.148;2023-12-28T10:49:48;4.60;;;3.27;;
1839;SDS011;920;48.944;9.148;2023-12-28T10:52:15;4.13;;;3.00;;
1839;SDS011;920;48.944;9.148;2023-12-28T10:54:44;4.60;;;3.60;;
1839;SDS011;920;48.944;9.148;2023-12-28T10:57:16;4.53;;;3.17;;
1839;SDS011;920;48.944;9.148;2023-12-28T10:59:51;4.10;;;2.90;;
1839;SDS011;920;48.944;9.148;2023-12-28T11:02:23;6.30;;;3.03;;
1839;SDS011;920;48.944;9.148;2023-12-28T11:04:55;3.57;;;2.83;;
1839;SDS011;920;48.944;9.148;2023-12-28T11:07:22;4.50;;;3.50;;
1839;SDS011;920;48.944;9.148;2023-12-28T11:09:49;4.40;;;3.93;;
1839;SDS011;920;48.944;9.148;2023-12-28T11:12:19;4.87;;;3.87;;
1839;SDS011;920;48.944;9.148;2023-12-28T11:14:46;6.27;;;4.17;;
1839;SDS011;920;48.944;9.148;2023-12-28T11:17:16;7.70;;;4.00;;
1839;SDS011;920;48.944;9.148;2023-12-28T11:19:43;4.20;;;3.70;;
1839;SDS011;920;48.944;9.148;2023-12-28T11:22:10;4.47;;;3.10;;
1839;SDS011;920;48.944;9.148;2023-12-28T11:24:36;3.40;;;2.87;;
1839;SDS011;920;48.944;9.148;2023-12-28T11:27:03;3.10;;;2.40;;
1839;SDS011;920;48.944;9.148;2023-12-28T11:29:33;3.23;;;2.40;;
1839;SDS011;920;48.944;9.148;2023-12-28T11:31:59;3.43;;;2.30;;
1839;SDS011;920;48.944;9.148;2023-12-28T11:34:27;3.87;;;2.50;;
1839;SDS011;920;48.944;9.148;2023-12-28T11:36:55;3.57;;;2.10;;
1839;SDS011;920;48.944;9.148;2023-12-28T11:39:26;3.03;;;1.93;;
1839;SDS011;920;48.944;9.148;2023-12-28T11:41:59;3.17;;;2.03;;
1839;SDS011;920;48.944;9.148;2023-12-28T11:44:28;4.27;;;2.57;;
1839;SDS011;920;48.944;9.148;2023-12-28T11:46:56;3.80;;;2.80;;
1839;SDS011;920;48.944;9.148;2023-12-28T11:49:25;4.40;;;3.40;;
1839;SDS011;920;48.944;9.148;2023-12-28T11:51:54;7.07;;;4.93;;
1839;SDS011;920;48.944;9.148;2023-12-28T11:54:23;10.40;;;5.23;;
1839;SDS011;920;48.944;9.148;2023-12-28T11:56:54;9.07;;;5.90;;
1839;SDS011;920;48.944;9.148;2023-12-28T11:59:20;9.40;;;5.97;;
1839;SDS011;920;48.944;9.148;2023-12-28T12:01:51;8.47;;;5.40;;
1839;SDS011;920;48.944;9.148;2023-12-28T12:04:20;9.40;;;5.50;;
1839;SDS011;920;48.944;9.148;2023-12-28T12:06:47;8.10;;;5.13;;
1839;SDS011;920;48.944;9.148;2023-12-28T12:09:15;9.47;;;5.33;;
1839;SDS011;920;48.944;9.148;2023-12-28T12:11:43;6.23;;;4.20;;
1839;SDS011;920;48.944;9.148;2023-12-28T12:14:10;5.90;;;3.50;;
1839;SDS011;920;48.944;9.148;2023-12-28T12:16:37;5.30;;;3.33;;
1839;SDS011;920;48.944;9.148;2023-12-28T12:19:04;4.30;;;2.77;;
1839;SDS011;920;48.944;9.148;2023-12-28T12:21:33;3.83;;;2.73;;
1839;SDS011;920;48.944;9.148;2023-12-28T12:24:00;3.60;;;2.63;;
1839;SDS011;920;48.944;9.148;2023-12-28T12:26:27;4.83;;;2.50;;
1839;SDS011;920;48.944;9.148;2023-12-28T12:28:55;4.70;;;2.67;;
1839;SDS011;920;48.944;9.148;2023-12-28T12:31:22;4.50;;;2.50;;
1839;SDS011;920;48.944;9.148;2023-12-28T12:33:49;3.20;;;2.50;;
1839;SDS011;920;48.944;9.148;2023-12-28T12:36:17;3.73;;;2.67;;
1839;SDS011;920;48.944;9.148;2023-12-28T12:38:45;6.03;;;3.20;;
1839;SDS011;920;48.944;9.148;2023-12-28T12:41:12;3.30;;;2.40;;
1839;SDS011;920;48.944;9.148;2023-12-28T12:43:39;3.90;;;2.70;;
1839;SDS011;920;48.944;9.148;2023-12-28T12:46:07;4.00;;;2.80;;
1839;SDS011;920;48.944;9.148;2023-12-28T12:48:34;3.00;;;2.40;;
1839;SDS011;920;48.944;9.148;2023-12-28T12:51:01;4.30;;;2.50;;
1839;SDS011;920;48.944;9.148;2023-12-28T12:53:32;3.50;;;2.63;;
1839;SDS011;920;48.944;9.148;2023-12-28T12:56:01;3.60;;;2.63;;
1839;SDS011;920;48.944;9.148;2023-12-28T12:58:29;3.00;;;2.37;;
1839;SDS011;920;48.944;9.148;2023-12-28T13:00:56;4.10;;;3.00;;
1839;SDS011;920;48.944;9.148;2023-12-28T13:03:27;5.10;;;2.70;;
1839;SDS011;920;48.944;9.148;2023-12-28T13:05:54;4.20;;;2.80;;
1839;SDS011;920;48.944;9.148;2023-12-28T13:08:21;3.50;;;2.40;;
1839;SDS011;920;48.944;9.148;2023-12-28T13:10:48;16.13;;;8.83;;
1839;SDS011;920;48.944;9.148;2023-12-28T13:13:17;7.13;;;4.00;;
1839;SDS011;920;48.944;9.148;2023-12-28T13:15:44;16.80;;;10.43;;
1839;SDS011;920;48.944;9.148;2023-12-28T13:18:10;17.50;;;10.70;;
1839;SDS011;920;48.944;9.148;2023-12-28T13:20:37;13.40;;;8.50;;
1839;SDS011;920;48.944;9.148;2023-12-28T13:23:04;11.97;;;7.30;;
1839;SDS011;920;48.944;9.148;2023-12-28T13:25:31;5.57;;;3.73;;
1839;SDS011;920;48.944;9.148;2023-12-28T13:27:57;6.20;;;3.70;;
1839;SDS011;920;48.944;9.148;2023-12-28T13:30:26;12.80;;;7.30;;
1839;SDS011;920;48.944;9.148;2023-12-28T13:32:53;8.27;;;5.63;;
1839;SDS011;920;48.944;9.148;2023-12-28T13:35:21;14.13;;;6.50;;
1839;SDS011;920;48.944;9.148;2023-12-28T13:37:48;6.77;;;3.50;;
1839;SDS011;920;48.944;9.148;2023-12-28T13:40:15;6.50;;;3.20;;
1839;SDS011;920;48.944;9.148;2023-12-28T13:42:42;4.10;;;2.30;;
1839;SDS011;920;48.944;9.148;2023-12-28T13:45:08;5.67;;;3.53;;
1839;SDS011;920;48.944;9.148;2023-12-28T13:47:37;3.90;;;2.30;;
1839;SDS011;920;48.944;9.148;2023-12-28T13:50:04;3.73;;;2.17;;
1839;SDS011;920;48.944;9.148;2023-12-28T13:52:32;4.90;;;2.57;;
1839;SDS011;920;48.944;9.148;2023-12-28T13:54:59;6.13;;;3.40;;
1839;SDS011;920;48.944;9.148;2023-12-28T13:57:26;3.37;;;2.27;;
1839;SDS011;920;48.944;9.148;2023-12-28T13:59:52;4.00;;;2.60;;
1839;SDS011;920;48.944;9.148;2023-12-28T14:02:21;6.47;;;3.17;;
1839;SDS011;920;48.944;9.148;2023-12-28T14:04:49;6.80;;;4.37;;
1839;SDS011;920;48.944;9.148;2023-12-28T14:07:16;4.73;;;3.00;;
1839;SDS011;920;48.944;9.148;2023-12-28T14:09:43;4.20;;;2.53;;
1839;SDS011;920;48.944;9.148;2023-12-28T14:12:09;5.27;;;3.53;;
1839;SDS011;920;48.944;9.148;2023-12-28T14:14:36;4.63;;;2.97;;
1839;SDS011;920;48.944;9.148;2023-12-28T14:17:03;3.30;;;2.20;;
1839;SDS011;920;48.944;9.148;2023-12-28T14:19:30;4.87;;;3.20;;
1839;SDS011;920;48.944;9.148;2023-12-28T14:21:59;4.60;;;3.10;;
1839;SDS011;920;48.944;9.148;2023-12-28T14:24:26;4.10;;;2.43;;
1839;SDS011;920;48.944;9.148;2023-12-28T14:26:53;4.60;;;2.50;;
1839;SDS011;920;48.944;9.148;2023-12-28T14:29:21;3.13;;;2.17;;
1839;SDS011;920;48.944;9.148;2023-12-28T14:31:48;3.70;;;2.50;;
1839;SDS011;920;48.944;9.148;2023-12-28T14:34:16;3.50;;;2.20;;
1839;SDS011;920;48.944;9.148;2023-12-28T14:36:44;3.00;;;2.40;;
1839;SDS011;920;48.944;9.148;2023-12-28T14:39:16;2.97;;;2.27;;
1839;SDS011;920;48.944;9.148;2023-12-28T14:41:44;3.37;;;2.20;;
1839;SDS011;920;48.944;9.148;2023-12-28T14:44:11;2.97;;;2.13;;
1839;SDS011;920;48.944;9.148;2023-12-28T14:46:38;3.30;;;2.33;;
1839;SDS011;920;48.944;9.148;2023-12-28T14:49:05;2.70;;;1.70;;
1839;SDS011;920;48.944;9.148;2023-12-28T14:51:32;2.77;;;1.80;;
1839;SDS011;920;48.944;9.148;2023-12-28T14:53:58;3.13;;;2.20;;
1839;SDS011;920;48.944;9.148;2023-12-28T14:56:26;3.60;;;2.23;;
1839;SDS011;920;48.944;9.148;2023-12-28T14:58:53;2.80;;;1.90;;
1839;SDS011;920;48.944;9.148;2023-12-28T15:01:20;2.67;;;1.70;;
1839;SDS011;920;48.944;9.148;2023-12-28T15:03:48;2.80;;;1.97;;
1839;SDS011;920;48.944;9.148;2023-12-28T15:06:14;3.50;;;2.27;;
1839;SDS011;920;48.944;9.148;2023-12-28T15:08:44;2.93;;;2.07;;
1839;SDS011;920;48.944;9.148;2023-12-28T15:11:11;3.20;;;1.90;;
1839;SDS011;920;48.944;9.148;2023-12-28T15:13:39;3.70;;;2.00;;
1839;SDS011;920;48.944;9.148;2023-12-28T15:16:07;4.10;;;2.20;;
1839;SDS011;920;48.944;9.148;2023-12-28T15:18:35;4.80;;;1.90;;
1839;SDS011;920;48.944;9.148;2023-12-28T15:21:02;2.80;;;1.73;;
1839;SDS011;920;48.944;9.148;2023-12-28T15:23:30;2.70;;;1.50;;
1839;SDS011;920;48.944;9.148;2023-12-28T15:25:57;2.90;;;2.00;;
1839;SDS011;920;48.944;9.148;2023-12-28T15:28:24;2.80;;;2.00;;
1839;SDS011;920;48.944;9.148;2023-12-28T15:30:52;2.60;;;2.00;;